sensor_id;sensor_type;location;lat;lon;timestamp;P1;durP1;ratioP1;P2;durP2;ratioP2
3257;SDS011;1641;51.306;12.384;2023-06-22T00:01:16;15.05;;;12.38;;
3257;SDS011;1641;51.306;12.384;2023-06-22T00:03:41;14.55;;;12.60;;
3257;SDS011;1641;51.306;12.384;2023-06-22T00:06:07;12.00;;;10.82;;
3257;SDS011;1641;51.306;12.384;2023-06-22T00:08:32;12.45;;;11.13;;
3257;SDS011;1641;51.306;12.384;2023-06-22T00:10:57;13.30;;;11.30;;
3257;SDS011;1641;51.306;12.384;2023-06-22T00:13:22;12.70;;;11.57;;
3257;SDS011;1641;51.306;12.384;2023-06-22T00:15:48;13.20;;;11.73;;
3257;SDS011;1641;51.306;12.384;2023-06-22T00:18:13;11.55;;;10.45;;
3257;SDS011;1641;51.306;12.384;2023-06-22T00:20:38;13.57;;;10.60;;
3257;SDS011;1641;51.306;12.384;2023-06-22T00:23:04;14.82;;;12.05;;
3257;SDS011;1641;51.306;12.384;2023-06-22T00:25:39;13.43;;;12.02;;
3257;SDS011;1641;51.306;12.384;2023-06-22T00:28:05;14.10;;;12.70;;
3257;SDS011;1641;51.306;12.384;2023-06-22T00:30:31;14.15;;;11.82;;
3257;SDS011;1641;51.306;12.384;2023-06-22T00:32:57;14.98;;;11.93;;
3257;SDS011;1641;51.306;12.384;2023-06-22T00:35:23;15.68;;;11.48;;
3257;SDS011;1641;51.306;12.384;2023-06-22T00:37:53;11.90;;;10.77;;
3257;SDS011;1641;51.306;12.384;2023-06-22T00:40:26;15.52;;;10.85;;
3257;SDS011;1641;51.306;12.384;2023-06-22T00:42:53;13.82;;;12.27;;
3257;SDS011;1641;51.306;12.384;2023-06-22T00:45:18;13.98;;;12.57;;
3257;SDS011;1641;51.306;12.384;2023-06-22T00:47:44;14.00;;;12.50;;
3257;SDS011;1641;51.306;12.384;2023-06-22T00:50:09;13.05;;;11.55;;
3257;SDS011;1641;51.306;12.384;2023-06-22T00:52:43;14.90;;;12.70;;
3257;SDS011;1641;51.306;12.384;2023-06-22T00:55:11;14.07;;;12.57;;
3257;SDS011;1641;51.306;12.384;2023-06-22T00:57:36;14.50;;;12.00;;
3257;SDS011;1641;51.306;12.384;2023-06-22T01:00:02;13.32;;;11.90;;
3257;SDS011;1641;51.306;12.384;2023-06-22T01:02:31;12.85;;;11.55;;
3257;SDS011;1641;51.306;12.384;2023-06-22T01:04:57;13.77;;;11.27;;
3257;SDS011;1641;51.306;12.384;2023-06-22T01:13:16;15.88;;;12.23;;
3257;SDS011;1641;51.306;12.384;2023-06-22T01:15:55;14.00;;;11.93;;
3257;SDS011;1641;51.306;12.384;2023-06-22T01:18:25;17.08;;;11.48;;
3257;SDS011;1641;51.306;12.384;2023-06-22T01:20:54;13.13;;;11.82;;
3257;SDS011;1641;51.306;12.384;2023-06-22T01:31:13;13.25;;;11.98;;
3257;SDS011;1641;51.306;12.384;2023-06-22T01:33:41;14.75;;;13.10;;
3257;SDS011;1641;51.306;12.384;2023-06-22T01:36:16;13.57;;;12.18;;
3257;SDS011;1641;51.306;12.384;2023-06-22T01:38:43;16.20;;;13.00;;
3257;SDS011;1641;51.306;12.384;2023-06-22T01:41:10;13.32;;;11.95;;
3257;SDS011;1641;51.306;12.384;2023-06-22T01:43:37;14.38;;;11.82;;
3257;SDS011;1641;51.306;12.384;2023-06-22T01:46:06;22.52;;;12.45;;
3257;SDS011;1641;51.306;12.384;2023-06-22T01:48:32;16.67;;;13.35;;
3257;SDS011;1641;51.306;12.384;2023-06-22T01:50:57;22.38;;;14.57;;
3257;SDS011;1641;51.306;12.384;2023-06-22T01:53:23;15.10;;;13.40;;
3257;SDS011;1641;51.306;12.384;2023-06-22T01:55:49;16.73;;;12.73;;
3257;SDS011;1641;51.306;12.384;2023-06-22T01:58:14;15.98;;;13.45;;
3257;SDS011;1641;51.306;12.384;2023-06-22T02:00:48;15.90;;;13.25;;
3257;SDS011;1641;51.306;12.384;2023-06-22T02:03:19;14.38;;;12.77;;
3257;SDS011;1641;51.306;12.384;2023-06-22T02:05:48;13.73;;;11.80;;
3257;SDS011;1641;51.306;12.384;2023-06-22T02:08:20;14.13;;;12.63;;
3257;SDS011;1641;51.306;12.384;2023-06-22T02:10:48;14.93;;;12.93;;
3257;SDS011;1641;51.306;12.384;2023-06-22T02:13:15;13.68;;;12.38;;
3257;SDS011;1641;51.306;12.384;2023-06-22T02:15:41;18.80;;;13.25;;
3257;SDS011;1641;51.306;12.384;2023-06-22T02:18:07;16.58;;;14.77;;
3257;SDS011;1641;51.306;12.384;2023-06-22T02:20:32;14.63;;;13.07;;
3257;SDS011;1641;51.306;12.384;2023-06-22T02:23:00;15.80;;;14.10;;
3257;SDS011;1641;51.306;12.384;2023-06-22T02:25:26;14.93;;;12.65;;
3257;SDS011;1641;51.306;12.384;2023-06-22T02:27:51;14.13;;;12.77;;
3257;SDS011;1641;51.306;12.384;2023-06-22T02:30:16;15.07;;;13.57;;
3257;SDS011;1641;51.306;12.384;2023-06-22T02:32:42;14.95;;;13.25;;
3257;SDS011;1641;51.306;12.384;2023-06-22T02:35:10;13.82;;;12.43;;
3257;SDS011;1641;51.306;12.384;2023-06-22T02:37:36;15.38;;;13.75;;
3257;SDS011;1641;51.306;12.384;2023-06-22T02:40:06;14.57;;;13.07;;
3257;SDS011;1641;51.306;12.384;2023-06-22T02:42:34;14.65;;;13.10;;
3257;SDS011;1641;51.306;12.384;2023-06-22T02:44:59;18.38;;;13.68;;
3257;SDS011;1641;51.306;12.384;2023-06-22T02:47:25;14.88;;;13.30;;
3257;SDS011;1641;51.306;12.384;2023-06-22T02:49:51;14.48;;;12.98;;
3257;SDS011;1641;51.306;12.384;2023-06-22T02:52:16;17.55;;;13.73;;
3257;SDS011;1641;51.306;12.384;2023-06-22T02:54:41;15.30;;;13.70;;
3257;SDS011;1641;51.306;12.384;2023-06-22T02:57:07;16.38;;;13.10;;
3257;SDS011;1641;51.306;12.384;2023-06-22T02:59:39;18.17;;;14.73;;
3257;SDS011;1641;51.306;12.384;2023-06-22T03:02:09;17.60;;;14.50;;
3257;SDS011;1641;51.306;12.384;2023-06-22T03:04:35;17.85;;;14.18;;
3257;SDS011;1641;51.306;12.384;2023-06-22T03:07:01;16.25;;;14.18;;
3257;SDS011;1641;51.306;12.384;2023-06-22T03:09:27;15.57;;;13.93;;
3257;SDS011;1641;51.306;12.384;2023-06-22T03:11:53;15.45;;;13.82;;
3257;SDS011;1641;51.306;12.384;2023-06-22T03:14:19;17.23;;;14.80;;
3257;SDS011;1641;51.306;12.384;2023-06-22T03:16:47;17.40;;;15.52;;
3257;SDS011;1641;51.306;12.384;2023-06-22T03:19:12;17.60;;;14.70;;
3257;SDS011;1641;51.306;12.384;2023-06-22T03:21:44;18.27;;;15.68;;
3257;SDS011;1641;51.306;12.384;2023-06-22T03:24:09;22.38;;;14.95;;
3257;SDS011;1641;51.306;12.384;2023-06-22T03:26:35;25.43;;;15.43;;
3257;SDS011;1641;51.306;12.384;2023-06-22T03:29:00;28.00;;;16.05;;
3257;SDS011;1641;51.306;12.384;2023-06-22T03:31:25;19.75;;;15.55;;
3257;SDS011;1641;51.306;12.384;2023-06-22T03:33:51;23.30;;;14.85;;
3257;SDS011;1641;51.306;12.384;2023-06-22T03:36:16;23.30;;;15.75;;
3257;SDS011;1641;51.306;12.384;2023-06-22T03:38:49;19.60;;;15.43;;
3257;SDS011;1641;51.306;12.384;2023-06-22T03:41:17;17.02;;;14.90;;
3257;SDS011;1641;51.306;12.384;2023-06-22T03:43:43;16.63;;;14.88;;
3257;SDS011;1641;51.306;12.384;2023-06-22T03:46:08;15.95;;;14.35;;
3257;SDS011;1641;51.306;12.384;2023-06-22T03:48:33;19.35;;;14.90;;
3257;SDS011;1641;51.306;12.384;2023-06-22T03:50:59;18.40;;;16.40;;
3257;SDS011;1641;51.306;12.384;2023-06-22T03:53:25;20.00;;;16.48;;
3257;SDS011;1641;51.306;12.384;2023-06-22T03:55:50;17.73;;;15.65;;
3257;SDS011;1641;51.306;12.384;2023-06-22T03:58:20;22.77;;;14.50;;
3257;SDS011;1641;51.306;12.384;2023-06-22T04:00:49;16.98;;;15.13;;
3257;SDS011;1641;51.306;12.384;2023-06-22T04:03:25;78.80;;;43.78;;
3257;SDS011;1641;51.306;12.384;2023-06-22T04:05:56;113.55;;;56.42;;
3257;SDS011;1641;51.306;12.384;2023-06-22T04:08:21;60.92;;;30.98;;
3257;SDS011;1641;51.306;12.384;2023-06-22T04:10:46;54.83;;;31.17;;
3257;SDS011;1641;51.306;12.384;2023-06-22T04:13:12;49.42;;;27.60;;
3257;SDS011;1641;51.306;12.384;2023-06-22T04:15:40;28.48;;;17.48;;
3257;SDS011;1641;51.306;12.384;2023-06-22T04:18:05;65.90;;;37.70;;
3257;SDS011;1641;51.306;12.384;2023-06-22T04:20:31;38.22;;;24.45;;
3257;SDS011;1641;51.306;12.384;2023-06-22T04:22:57;17.17;;;14.95;;
3257;SDS011;1641;51.306;12.384;2023-06-22T04:25:22;17.33;;;14.00;;
3257;SDS011;1641;51.306;12.384;2023-06-22T04:27:48;39.20;;;24.02;;
3257;SDS011;1641;51.306;12.384;2023-06-22T04:30:13;84.10;;;45.13;;
3257;SDS011;1641;51.306;12.384;2023-06-22T04:32:41;38.90;;;21.83;;
3257;SDS011;1641;51.306;12.384;2023-06-22T04:35:07;55.67;;;32.30;;
3257;SDS011;1641;51.306;12.384;2023-06-22T04:37:33;70.97;;;36.92;;
3257;SDS011;1641;51.306;12.384;2023-06-22T04:39:59;25.13;;;16.42;;
3257;SDS011;1641;51.306;12.384;2023-06-22T04:42:27;19.52;;;15.35;;
3257;SDS011;1641;51.306;12.384;2023-06-22T04:44:53;19.35;;;16.08;;
3257;SDS011;1641;51.306;12.384;2023-06-22T04:47:19;38.53;;;24.42;;
3257;SDS011;1641;51.306;12.384;2023-06-22T04:49:44;33.67;;;21.13;;
3257;SDS011;1641;51.306;12.384;2023-06-22T04:52:15;21.10;;;16.25;;
3257;SDS011;1641;51.306;12.384;2023-06-22T04:54:43;19.33;;;15.57;;
3257;SDS011;1641;51.306;12.384;2023-06-22T04:57:15;18.42;;;15.57;;
3257;SDS011;1641;51.306;12.384;2023-06-22T04:59:41;17.48;;;15.77;;
3257;SDS011;1641;51.306;12.384;2023-06-22T05:02:07;39.45;;;24.63;;
3257;SDS011;1641;51.306;12.384;2023-06-22T05:04:35;20.42;;;16.27;;
3257;SDS011;1641;51.306;12.384;2023-06-22T05:07:03;27.87;;;15.30;;
3257;SDS011;1641;51.306;12.384;2023-06-22T05:09:29;20.75;;;15.73;;
3257;SDS011;1641;51.306;12.384;2023-06-22T05:11:55;19.17;;;15.57;;
3257;SDS011;1641;51.306;12.384;2023-06-22T05:14:24;24.02;;;17.20;;
3257;SDS011;1641;51.306;12.384;2023-06-22T05:16:49;29.85;;;17.23;;
3257;SDS011;1641;51.306;12.384;2023-06-22T05:19:16;18.27;;;15.93;;
3257;SDS011;1641;51.306;12.384;2023-06-22T05:21:42;20.65;;;16.27;;
3257;SDS011;1641;51.306;12.384;2023-06-22T05:24:07;23.47;;;15.40;;
3257;SDS011;1641;51.306;12.384;2023-06-22T05:26:33;21.25;;;14.95;;
3257;SDS011;1641;51.306;12.384;2023-06-22T05:28:59;21.48;;;14.25;;
3257;SDS011;1641;51.306;12.384;2023-06-22T05:31:29;19.50;;;15.20;;
3257;SDS011;1641;51.306;12.384;2023-06-22T05:33:55;15.95;;;13.82;;
3257;SDS011;1641;51.306;12.384;2023-06-22T05:36:20;20.08;;;14.00;;
3257;SDS011;1641;51.306;12.384;2023-06-22T05:38:52;16.95;;;15.13;;
3257;SDS011;1641;51.306;12.384;2023-06-22T05:41:18;16.33;;;13.63;;
3257;SDS011;1641;51.306;12.384;2023-06-22T05:43:43;19.80;;;13.35;;
3257;SDS011;1641;51.306;12.384;2023-06-22T05:46:09;17.90;;;12.77;;
3257;SDS011;1641;51.306;12.384;2023-06-22T05:48:34;14.43;;;11.60;;
3257;SDS011;1641;51.306;12.384;2023-06-22T05:50:59;17.25;;;11.00;;
3257;SDS011;1641;51.306;12.384;2023-06-22T05:53:25;15.70;;;11.75;;
3257;SDS011;1641;51.306;12.384;2023-06-22T05:55:50;14.27;;;10.88;;
3257;SDS011;1641;51.306;12.384;2023-06-22T05:58:15;16.02;;;11.63;;
3257;SDS011;1641;51.306;12.384;2023-06-22T06:00:41;14.82;;;11.90;;
3257;SDS011;1641;51.306;12.384;2023-06-22T06:03:11;11.65;;;10.50;;
3257;SDS011;1641;51.306;12.384;2023-06-22T06:05:37;13.32;;;11.48;;
3257;SDS011;1641;51.306;12.384;2023-06-22T06:08:03;13.52;;;11.25;;
3257;SDS011;1641;51.306;12.384;2023-06-22T06:10:36;19.42;;;11.88;;
3257;SDS011;1641;51.306;12.384;2023-06-22T06:13:01;15.38;;;12.05;;
3257;SDS011;1641;51.306;12.384;2023-06-22T06:15:32;19.52;;;12.30;;
3257;SDS011;1641;51.306;12.384;2023-06-22T06:17:58;16.00;;;10.80;;
3257;SDS011;1641;51.306;12.384;2023-06-22T06:20:26;11.35;;;10.15;;
3257;SDS011;1641;51.306;12.384;2023-06-22T06:22:57;14.82;;;10.13;;
3257;SDS011;1641;51.306;12.384;2023-06-22T06:25:23;17.85;;;10.23;;
3257;SDS011;1641;51.306;12.384;2023-06-22T06:27:49;12.27;;;10.30;;
3257;SDS011;1641;51.306;12.384;2023-06-22T06:30:16;17.73;;;9.38;;
3257;SDS011;1641;51.306;12.384;2023-06-22T06:32:43;12.50;;;10.05;;
3257;SDS011;1641;51.306;12.384;2023-06-22T06:35:10;14.60;;;10.27;;
3257;SDS011;1641;51.306;12.384;2023-06-22T06:37:37;11.77;;;9.80;;
3257;SDS011;1641;51.306;12.384;2023-06-22T06:40:08;13.10;;;9.18;;
3257;SDS011;1641;51.306;12.384;2023-06-22T06:42:35;20.60;;;14.45;;
3257;SDS011;1641;51.306;12.384;2023-06-22T06:45:05;30.05;;;21.35;;
3257;SDS011;1641;51.306;12.384;2023-06-22T06:47:31;14.93;;;9.02;;
3257;SDS011;1641;51.306;12.384;2023-06-22T06:49:56;9.70;;;8.23;;
3257;SDS011;1641;51.306;12.384;2023-06-22T06:52:21;14.10;;;8.60;;
3257;SDS011;1641;51.306;12.384;2023-06-22T06:54:47;9.40;;;8.30;;
3257;SDS011;1641;51.306;12.384;2023-06-22T06:57:15;11.33;;;8.13;;
3257;SDS011;1641;51.306;12.384;2023-06-22T06:59:40;10.10;;;8.60;;
3257;SDS011;1641;51.306;12.384;2023-06-22T07:02:09;11.73;;;8.43;;
3257;SDS011;1641;51.306;12.384;2023-06-22T07:04:37;10.25;;;8.55;;
3257;SDS011;1641;51.306;12.384;2023-06-22T07:07:02;11.02;;;8.73;;
3257;SDS011;1641;51.306;12.384;2023-06-22T07:09:28;8.90;;;8.07;;
3257;SDS011;1641;51.306;12.384;2023-06-22T07:11:53;9.77;;;8.13;;
3257;SDS011;1641;51.306;12.384;2023-06-22T07:14:18;9.93;;;9.03;;
3257;SDS011;1641;51.306;12.384;2023-06-22T07:16:44;9.93;;;8.43;;
3257;SDS011;1641;51.306;12.384;2023-06-22T07:19:11;12.48;;;7.75;;
3257;SDS011;1641;51.306;12.384;2023-06-22T07:21:36;10.63;;;8.48;;
3257;SDS011;1641;51.306;12.384;2023-06-22T07:24:02;12.90;;;8.90;;
3257;SDS011;1641;51.306;12.384;2023-06-22T07:26:27;11.10;;;8.35;;
3257;SDS011;1641;51.306;12.384;2023-06-22T07:28:52;11.05;;;8.23;;
3257;SDS011;1641;51.306;12.384;2023-06-22T07:31:24;11.87;;;8.80;;
3257;SDS011;1641;51.306;12.384;2023-06-22T07:33:50;9.82;;;8.70;;
3257;SDS011;1641;51.306;12.384;2023-06-22T07:36:18;13.05;;;9.70;;
3257;SDS011;1641;51.306;12.384;2023-06-22T07:38:43;11.32;;;9.18;;
3257;SDS011;1641;51.306;12.384;2023-06-22T07:41:09;11.05;;;7.90;;
3257;SDS011;1641;51.306;12.384;2023-06-22T07:43:34;13.15;;;8.43;;
3257;SDS011;1641;51.306;12.384;2023-06-22T07:46:02;9.70;;;8.70;;
3257;SDS011;1641;51.306;12.384;2023-06-22T07:48:33;13.15;;;9.82;;
3257;SDS011;1641;51.306;12.384;2023-06-22T07:51:02;15.52;;;8.45;;
3257;SDS011;1641;51.306;12.384;2023-06-22T07:53:27;12.25;;;8.88;;
3257;SDS011;1641;51.306;12.384;2023-06-22T07:55:53;12.45;;;8.80;;
3257;SDS011;1641;51.306;12.384;2023-06-22T07:58:27;13.30;;;7.55;;
3257;SDS011;1641;51.306;12.384;2023-06-22T08:00:56;10.98;;;8.15;;
3257;SDS011;1641;51.306;12.384;2023-06-22T08:03:21;9.77;;;8.20;;
3257;SDS011;1641;51.306;12.384;2023-06-22T08:05:46;8.88;;;8.07;;
3257;SDS011;1641;51.306;12.384;2023-06-22T08:08:14;10.88;;;7.80;;
3257;SDS011;1641;51.306;12.384;2023-06-22T08:10:39;10.75;;;8.30;;
3257;SDS011;1641;51.306;12.384;2023-06-22T08:13:04;11.18;;;7.78;;
3257;SDS011;1641;51.306;12.384;2023-06-22T08:15:30;8.63;;;7.70;;
3257;SDS011;1641;51.306;12.384;2023-06-22T08:17:55;10.70;;;7.63;;
3257;SDS011;1641;51.306;12.384;2023-06-22T08:20:20;12.60;;;7.93;;
3257;SDS011;1641;51.306;12.384;2023-06-22T08:22:45;9.37;;;8.47;;
3257;SDS011;1641;51.306;12.384;2023-06-22T08:25:11;8.37;;;7.53;;
3257;SDS011;1641;51.306;12.384;2023-06-22T08:27:36;8.57;;;7.70;;
3257;SDS011;1641;51.306;12.384;2023-06-22T08:30:02;7.97;;;7.18;;
3257;SDS011;1641;51.306;12.384;2023-06-22T08:32:28;11.40;;;8.80;;
3257;SDS011;1641;51.306;12.384;2023-06-22T08:34:54;9.40;;;8.45;;
3257;SDS011;1641;51.306;12.384;2023-06-22T08:37:20;10.20;;;7.85;;
3257;SDS011;1641;51.306;12.384;2023-06-22T08:39:51;10.23;;;7.60;;
3257;SDS011;1641;51.306;12.384;2023-06-22T08:42:16;8.38;;;7.57;;
3257;SDS011;1641;51.306;12.384;2023-06-22T08:44:42;9.35;;;7.45;;
3257;SDS011;1641;51.306;12.384;2023-06-22T08:47:07;8.38;;;7.57;;
3257;SDS011;1641;51.306;12.384;2023-06-22T08:49:32;8.00;;;7.05;;
3257;SDS011;1641;51.306;12.384;2023-06-22T08:51:58;8.83;;;7.30;;
3257;SDS011;1641;51.306;12.384;2023-06-22T08:54:23;9.80;;;7.47;;
3257;SDS011;1641;51.306;12.384;2023-06-22T08:56:48;8.43;;;7.73;;
3257;SDS011;1641;51.306;12.384;2023-06-22T08:59:13;7.70;;;6.90;;
3257;SDS011;1641;51.306;12.384;2023-06-22T09:01:39;8.85;;;8.02;;
3257;SDS011;1641;51.306;12.384;2023-06-22T09:04:04;10.73;;;9.10;;
3257;SDS011;1641;51.306;12.384;2023-06-22T09:06:31;7.80;;;7.03;;
3257;SDS011;1641;51.306;12.384;2023-06-22T09:08:56;9.52;;;8.48;;
3257;SDS011;1641;51.306;12.384;2023-06-22T09:11:24;10.13;;;7.35;;
3257;SDS011;1641;51.306;12.384;2023-06-22T09:13:49;8.03;;;7.00;;
3257;SDS011;1641;51.306;12.384;2023-06-22T09:16:15;7.43;;;6.70;;
3257;SDS011;1641;51.306;12.384;2023-06-22T09:18:41;7.80;;;6.38;;
3257;SDS011;1641;51.306;12.384;2023-06-22T09:21:06;7.03;;;6.32;;
3257;SDS011;1641;51.306;12.384;2023-06-22T09:23:32;7.15;;;6.35;;
3257;SDS011;1641;51.306;12.384;2023-06-22T09:25:57;7.30;;;6.53;;
3257;SDS011;1641;51.306;12.384;2023-06-22T09:28:22;7.80;;;6.37;;
3257;SDS011;1641;51.306;12.384;2023-06-22T09:30:48;8.00;;;6.30;;
3257;SDS011;1641;51.306;12.384;2023-06-22T09:33:13;6.00;;;5.50;;
3257;SDS011;1641;51.306;12.384;2023-06-22T09:35:38;6.23;;;5.63;;
3257;SDS011;1641;51.306;12.384;2023-06-22T09:38:03;6.63;;;5.93;;
3257;SDS011;1641;51.306;12.384;2023-06-22T09:40:29;5.88;;;5.28;;
3257;SDS011;1641;51.306;12.384;2023-06-22T09:42:54;8.60;;;7.30;;
3257;SDS011;1641;51.306;12.384;2023-06-22T09:45:19;6.50;;;5.90;;
3257;SDS011;1641;51.306;12.384;2023-06-22T09:47:44;6.70;;;5.80;;
3257;SDS011;1641;51.306;12.384;2023-06-22T09:50:09;6.10;;;5.50;;
3257;SDS011;1641;51.306;12.384;2023-06-22T09:52:35;6.82;;;5.45;;
3257;SDS011;1641;51.306;12.384;2023-06-22T09:55:00;9.52;;;6.20;;
3257;SDS011;1641;51.306;12.384;2023-06-22T09:57:25;8.97;;;6.00;;
3257;SDS011;1641;51.306;12.384;2023-06-22T09:59:51;6.57;;;5.97;;
3257;SDS011;1641;51.306;12.384;2023-06-22T10:02:16;7.05;;;5.47;;
3257;SDS011;1641;51.306;12.384;2023-06-22T10:04:42;10.27;;;6.07;;
3257;SDS011;1641;51.306;12.384;2023-06-22T10:07:07;5.97;;;5.33;;
3257;SDS011;1641;51.306;12.384;2023-06-22T10:09:32;5.60;;;5.10;;
3257;SDS011;1641;51.306;12.384;2023-06-22T10:11:58;5.50;;;5.00;;
3257;SDS011;1641;51.306;12.384;2023-06-22T10:14:23;5.10;;;4.65;;
3257;SDS011;1641;51.306;12.384;2023-06-22T10:16:50;6.63;;;6.03;;
3257;SDS011;1641;51.306;12.384;2023-06-22T10:19:17;6.05;;;5.45;;
3257;SDS011;1641;51.306;12.384;2023-06-22T10:21:42;6.70;;;5.80;;
3257;SDS011;1641;51.306;12.384;2023-06-22T10:24:08;6.22;;;5.45;;
3257;SDS011;1641;51.306;12.384;2023-06-22T10:26:34;7.38;;;5.68;;
3257;SDS011;1641;51.306;12.384;2023-06-22T10:29:00;6.05;;;5.43;;
3257;SDS011;1641;51.306;12.384;2023-06-22T10:31:26;7.30;;;5.07;;
3257;SDS011;1641;51.306;12.384;2023-06-22T10:33:52;5.60;;;5.10;;
3257;SDS011;1641;51.306;12.384;2023-06-22T10:36:18;6.20;;;5.60;;
3257;SDS011;1641;51.306;12.384;2023-06-22T10:38:44;6.63;;;5.28;;
3257;SDS011;1641;51.306;12.384;2023-06-22T10:41:10;6.18;;;5.63;;
3257;SDS011;1641;51.306;12.384;2023-06-22T10:43:35;6.60;;;6.00;;
3257;SDS011;1641;51.306;12.384;2023-06-22T10:46:00;5.30;;;4.80;;
3257;SDS011;1641;51.306;12.384;2023-06-22T10:48:26;5.80;;;5.30;;
3257;SDS011;1641;51.306;12.384;2023-06-22T10:50:51;6.67;;;5.93;;
3257;SDS011;1641;51.306;12.384;2023-06-22T10:53:16;8.05;;;6.20;;
3257;SDS011;1641;51.306;12.384;2023-06-22T10:55:41;7.80;;;6.07;;
3257;SDS011;1641;51.306;12.384;2023-06-22T10:58:07;9.40;;;5.80;;
3257;SDS011;1641;51.306;12.384;2023-06-22T11:00:32;6.73;;;5.43;;
3257;SDS011;1641;51.306;12.384;2023-06-22T11:02:57;7.27;;;5.93;;
3257;SDS011;1641;51.306;12.384;2023-06-22T11:05:23;10.52;;;5.90;;
3257;SDS011;1641;51.306;12.384;2023-06-22T11:07:48;7.85;;;5.57;;
3257;SDS011;1641;51.306;12.384;2023-06-22T11:10:14;7.47;;;5.78;;
3257;SDS011;1641;51.306;12.384;2023-06-22T11:12:39;6.78;;;5.95;;
3257;SDS011;1641;51.306;12.384;2023-06-22T11:15:05;6.53;;;5.93;;
3257;SDS011;1641;51.306;12.384;2023-06-22T11:17:31;6.82;;;6.15;;
3257;SDS011;1641;51.306;12.384;2023-06-22T11:19:56;6.50;;;5.70;;
3257;SDS011;1641;51.306;12.384;2023-06-22T11:22:21;7.75;;;6.75;;
3257;SDS011;1641;51.306;12.384;2023-06-22T11:24:46;6.97;;;6.30;;
3257;SDS011;1641;51.306;12.384;2023-06-22T11:27:12;6.60;;;6.00;;
3257;SDS011;1641;51.306;12.384;2023-06-22T11:29:37;9.95;;;5.65;;
3257;SDS011;1641;51.306;12.384;2023-06-22T11:32:05;9.40;;;6.50;;
3257;SDS011;1641;51.306;12.384;2023-06-22T11:34:31;9.73;;;6.75;;
3257;SDS011;1641;51.306;12.384;2023-06-22T11:36:56;8.00;;;6.60;;
3257;SDS011;1641;51.306;12.384;2023-06-22T11:39:22;7.77;;;6.57;;
3257;SDS011;1641;51.306;12.384;2023-06-22T11:41:47;7.10;;;6.40;;
3257;SDS011;1641;51.306;12.384;2023-06-22T11:44:12;7.90;;;7.10;;
3257;SDS011;1641;51.306;12.384;2023-06-22T11:46:37;9.23;;;6.20;;
3257;SDS011;1641;51.306;12.384;2023-06-22T11:49:02;6.70;;;6.07;;
3257;SDS011;1641;51.306;12.384;2023-06-22T11:51:28;7.88;;;6.30;;
3257;SDS011;1641;51.306;12.384;2023-06-22T11:53:56;6.68;;;6.07;;
3257;SDS011;1641;51.306;12.384;2023-06-22T11:56:21;8.33;;;6.43;;
3257;SDS011;1641;51.306;12.384;2023-06-22T11:58:46;11.43;;;6.13;;
3257;SDS011;1641;51.306;12.384;2023-06-22T12:01:11;9.40;;;6.47;;
3257;SDS011;1641;51.306;12.384;2023-06-22T12:03:40;9.18;;;7.13;;
3257;SDS011;1641;51.306;12.384;2023-06-22T12:06:06;6.53;;;5.88;;
3257;SDS011;1641;51.306;12.384;2023-06-22T12:08:31;8.23;;;5.63;;
3257;SDS011;1641;51.306;12.384;2023-06-22T12:10:56;8.13;;;6.50;;
3257;SDS011;1641;51.306;12.384;2023-06-22T12:13:21;7.07;;;6.37;;
3257;SDS011;1641;51.306;12.384;2023-06-22T12:15:47;7.27;;;5.97;;
3257;SDS011;1641;51.306;12.384;2023-06-22T12:18:12;7.47;;;6.60;;
3257;SDS011;1641;51.306;12.384;2023-06-22T12:20:39;7.97;;;6.25;;
3257;SDS011;1641;51.306;12.384;2023-06-22T12:23:05;7.47;;;6.53;;
3257;SDS011;1641;51.306;12.384;2023-06-22T12:25:30;7.10;;;6.40;;
3257;SDS011;1641;51.306;12.384;2023-06-22T12:27:55;6.93;;;5.90;;
3257;SDS011;1641;51.306;12.384;2023-06-22T12:30:20;8.47;;;6.80;;
3257;SDS011;1641;51.306;12.384;2023-06-22T12:32:46;7.68;;;5.93;;
3257;SDS011;1641;51.306;12.384;2023-06-22T12:35:11;6.60;;;6.00;;
3257;SDS011;1641;51.306;12.384;2023-06-22T12:37:40;6.50;;;5.70;;
3257;SDS011;1641;51.306;12.384;2023-06-22T12:40:06;6.25;;;5.38;;
3257;SDS011;1641;51.306;12.384;2023-06-22T12:42:32;5.93;;;5.43;;
3257;SDS011;1641;51.306;12.384;2023-06-22T12:44:57;11.10;;;6.33;;
3257;SDS011;1641;51.306;12.384;2023-06-22T12:47:22;7.03;;;6.33;;
3257;SDS011;1641;51.306;12.384;2023-06-22T12:49:47;7.17;;;5.90;;
3257;SDS011;1641;51.306;12.384;2023-06-22T12:52:13;10.13;;;6.30;;
3257;SDS011;1641;51.306;12.384;2023-06-22T12:54:38;6.53;;;5.90;;
3257;SDS011;1641;51.306;12.384;2023-06-22T12:57:03;8.17;;;7.17;;
3257;SDS011;1641;51.306;12.384;2023-06-22T12:59:29;7.82;;;6.32;;
3257;SDS011;1641;51.306;12.384;2023-06-22T13:01:54;7.10;;;6.43;;
3257;SDS011;1641;51.306;12.384;2023-06-22T13:04:20;8.30;;;7.45;;
3257;SDS011;1641;51.306;12.384;2023-06-22T13:06:46;7.30;;;6.47;;
3257;SDS011;1641;51.306;12.384;2023-06-22T13:09:13;9.52;;;7.57;;
3257;SDS011;1641;51.306;12.384;2023-06-22T13:11:39;7.80;;;7.07;;
3257;SDS011;1641;51.306;12.384;2023-06-22T13:14:04;7.57;;;6.23;;
3257;SDS011;1641;51.306;12.384;2023-06-22T13:16:30;7.40;;;6.70;;
3257;SDS011;1641;51.306;12.384;2023-06-22T13:18:55;8.83;;;7.10;;
3257;SDS011;1641;51.306;12.384;2023-06-22T13:21:20;8.97;;;6.87;;
3257;SDS011;1641;51.306;12.384;2023-06-22T13:23:45;8.53;;;6.53;;
3257;SDS011;1641;51.306;12.384;2023-06-22T13:26:10;7.53;;;6.82;;
3257;SDS011;1641;51.306;12.384;2023-06-22T13:28:36;8.48;;;6.32;;
3257;SDS011;1641;51.306;12.384;2023-06-22T13:31:01;17.05;;;6.82;;
3257;SDS011;1641;51.306;12.384;2023-06-22T13:33:26;6.70;;;6.10;;
3257;SDS011;1641;51.306;12.384;2023-06-22T13:35:52;7.13;;;6.40;;
3257;SDS011;1641;51.306;12.384;2023-06-22T13:38:17;7.65;;;6.95;;
3257;SDS011;1641;51.306;12.384;2023-06-22T13:40:42;9.13;;;6.30;;
3257;SDS011;1641;51.306;12.384;2023-06-22T13:43:08;9.45;;;8.00;;
3257;SDS011;1641;51.306;12.384;2023-06-22T13:45:33;8.45;;;6.45;;
3257;SDS011;1641;51.306;12.384;2023-06-22T13:47:58;8.07;;;7.17;;
3257;SDS011;1641;51.306;12.384;2023-06-22T13:50:24;7.55;;;6.40;;
3257;SDS011;1641;51.306;12.384;2023-06-22T13:52:49;7.50;;;6.05;;
3257;SDS011;1641;51.306;12.384;2023-06-22T13:55:14;7.35;;;6.15;;
3257;SDS011;1641;51.306;12.384;2023-06-22T13:57:40;7.93;;;6.90;;
3257;SDS011;1641;51.306;12.384;2023-06-22T14:00:06;7.57;;;6.63;;
3257;SDS011;1641;51.306;12.384;2023-06-22T14:02:33;6.70;;;6.10;;
3257;SDS011;1641;51.306;12.384;2023-06-22T14:04:58;7.50;;;6.63;;
3257;SDS011;1641;51.306;12.384;2023-06-22T14:07:23;7.73;;;7.03;;
3257;SDS011;1641;51.306;12.384;2023-06-22T14:09:49;11.50;;;6.20;;
3257;SDS011;1641;51.306;12.384;2023-06-22T14:12:14;7.68;;;6.57;;
3257;SDS011;1641;51.306;12.384;2023-06-22T14:14:40;6.65;;;6.03;;
3257;SDS011;1641;51.306;12.384;2023-06-22T14:17:06;8.93;;;5.90;;
3257;SDS011;1641;51.306;12.384;2023-06-22T14:19:31;8.57;;;6.87;;
3257;SDS011;1641;51.306;12.384;2023-06-22T14:21:56;8.52;;;7.57;;
3257;SDS011;1641;51.306;12.384;2023-06-22T14:24:22;9.68;;;7.00;;
3257;SDS011;1641;51.306;12.384;2023-06-22T14:26:48;10.50;;;7.38;;
3257;SDS011;1641;51.306;12.384;2023-06-22T14:29:13;8.48;;;7.68;;
3257;SDS011;1641;51.306;12.384;2023-06-22T14:31:38;10.85;;;9.90;;
3257;SDS011;1641;51.306;12.384;2023-06-22T14:34:04;8.05;;;6.93;;
3257;SDS011;1641;51.306;12.384;2023-06-22T14:36:30;7.30;;;6.60;;
3257;SDS011;1641;51.306;12.384;2023-06-22T14:38:55;10.80;;;6.70;;
3257;SDS011;1641;51.306;12.384;2023-06-22T14:41:21;7.43;;;6.67;;
3257;SDS011;1641;51.306;12.384;2023-06-22T14:43:46;8.55;;;7.75;;
3257;SDS011;1641;51.306;12.384;2023-06-22T14:46:18;8.95;;;6.50;;
3257;SDS011;1641;51.306;12.384;2023-06-22T14:48:44;6.65;;;5.88;;
3257;SDS011;1641;51.306;12.384;2023-06-22T14:51:09;9.45;;;6.93;;
3257;SDS011;1641;51.306;12.384;2023-06-22T14:53:36;8.23;;;7.28;;
3257;SDS011;1641;51.306;12.384;2023-06-22T14:56:02;8.70;;;6.47;;